Terminal Aerodrome Forecast
Issued by NWS

Home | Current Version | Previous Version | Text Only | Print | Product List | Glossary On
Versions: 1 2 3 4 5 6 7 8 9 10 11 12 13 14 15 16 17 18 19 20
680
FTUS41 KPBZ 272339
TAFDUJ
TAF
KDUJ 272339Z 2800/2824 19006KT P6SM FEW040 BKN080
     FM281300 26005KT P6SM SCT020
     FM281600 22006KT P6SM SCT200=

USA.gov is the U.S. government's official web portal to all federal, state and local government web resources and services.